sensor_id;sensor_type;location;lat;lon;timestamp;P1;durP1;ratioP1;P2;durP2;ratioP2
10705;SDS011;5404;42.656;23.336;2023-02-28T00:00:17;59.25;;;25.20;;
10705;SDS011;5404;42.656;23.336;2023-02-28T00:02:48;48.15;;;22.55;;
10705;SDS011;5404;42.656;23.336;2023-02-28T00:05:15;49.00;;;21.92;;
10705;SDS011;5404;42.656;23.336;2023-02-28T00:07:43;50.28;;;24.38;;
10705;SDS011;5404;42.656;23.336;2023-02-28T00:10:10;53.40;;;24.25;;
10705;SDS011;5404;42.656;23.336;2023-02-28T00:12:37;46.45;;;21.50;;
10705;SDS011;5404;42.656;23.336;2023-02-28T00:15:07;46.80;;;21.38;;
10705;SDS011;5404;42.656;23.336;2023-02-28T00:17:34;49.03;;;23.33;;
10705;SDS011;5404;42.656;23.336;2023-02-28T00:20:00;56.42;;;24.92;;
10705;SDS011;5404;42.656;23.336;2023-02-28T00:22:37;53.70;;;22.73;;
10705;SDS011;5404;42.656;23.336;2023-02-28T00:25:05;37.55;;;18.75;;
10705;SDS011;5404;42.656;23.336;2023-02-28T00:27:32;36.85;;;17.67;;
10705;SDS011;5404;42.656;23.336;2023-02-28T00:29:58;42.20;;;20.10;;
10705;SDS011;5404;42.656;23.336;2023-02-28T00:32:27;39.33;;;20.70;;
10705;SDS011;5404;42.656;23.336;2023-02-28T00:34:52;44.60;;;21.38;;
10705;SDS011;5404;42.656;23.336;2023-02-28T00:37:18;77.82;;;29.20;;
10705;SDS011;5404;42.656;23.336;2023-02-28T00:39:44;46.80;;;23.52;;
10705;SDS011;5404;42.656;23.336;2023-02-28T00:42:10;55.53;;;21.80;;
10705;SDS011;5404;42.656;23.336;2023-02-28T00:44:35;55.13;;;23.45;;
10705;SDS011;5404;42.656;23.336;2023-02-28T00:47:01;41.40;;;20.25;;
10705;SDS011;5404;42.656;23.336;2023-02-28T00:49:26;41.45;;;20.42;;
10705;SDS011;5404;42.656;23.336;2023-02-28T00:51:53;40.28;;;18.77;;
10705;SDS011;5404;42.656;23.336;2023-02-28T00:54:22;56.60;;;23.85;;
10705;SDS011;5404;42.656;23.336;2023-02-28T00:56:48;43.05;;;21.35;;
10705;SDS011;5404;42.656;23.336;2023-02-28T00:59:15;56.20;;;26.70;;
10705;SDS011;5404;42.656;23.336;2023-02-28T01:01:42;41.97;;;21.83;;
10705;SDS011;5404;42.656;23.336;2023-02-28T01:04:08;44.30;;;22.17;;
10705;SDS011;5404;42.656;23.336;2023-02-28T01:06:34;76.80;;;33.28;;
10705;SDS011;5404;42.656;23.336;2023-02-28T01:09:02;56.53;;;22.83;;
10705;SDS011;5404;42.656;23.336;2023-02-28T01:11:29;45.60;;;19.83;;
10705;SDS011;5404;42.656;23.336;2023-02-28T01:13:56;48.65;;;22.50;;
10705;SDS011;5404;42.656;23.336;2023-02-28T01:16:22;48.13;;;22.33;;
10705;SDS011;5404;42.656;23.336;2023-02-28T01:18:47;55.58;;;26.88;;
10705;SDS011;5404;42.656;23.336;2023-02-28T01:21:14;51.75;;;25.08;;
10705;SDS011;5404;42.656;23.336;2023-02-28T01:23:42;53.08;;;24.52;;
10705;SDS011;5404;42.656;23.336;2023-02-28T01:26:09;54.88;;;27.10;;
10705;SDS011;5404;42.656;23.336;2023-02-28T01:28:37;51.92;;;24.05;;
10705;SDS011;5404;42.656;23.336;2023-02-28T01:31:03;53.25;;;25.88;;
10705;SDS011;5404;42.656;23.336;2023-02-28T01:33:28;51.20;;;24.88;;
10705;SDS011;5404;42.656;23.336;2023-02-28T01:36:01;56.60;;;25.40;;
10705;SDS011;5404;42.656;23.336;2023-02-28T01:38:29;53.72;;;25.45;;
10705;SDS011;5404;42.656;23.336;2023-02-28T01:40:56;52.75;;;25.73;;
10705;SDS011;5404;42.656;23.336;2023-02-28T01:43:28;53.88;;;25.35;;
10705;SDS011;5404;42.656;23.336;2023-02-28T01:45:57;49.25;;;25.17;;
10705;SDS011;5404;42.656;23.336;2023-02-28T01:48:34;55.28;;;25.02;;
10705;SDS011;5404;42.656;23.336;2023-02-28T01:51:04;61.83;;;26.98;;
10705;SDS011;5404;42.656;23.336;2023-02-28T01:53:35;55.65;;;26.73;;
10705;SDS011;5404;42.656;23.336;2023-02-28T01:56:05;61.20;;;27.30;;
10705;SDS011;5404;42.656;23.336;2023-02-28T01:58:33;57.85;;;28.05;;
10705;SDS011;5404;42.656;23.336;2023-02-28T02:01:00;61.83;;;27.70;;
10705;SDS011;5404;42.656;23.336;2023-02-28T02:03:27;68.78;;;28.80;;
10705;SDS011;5404;42.656;23.336;2023-02-28T02:05:55;63.83;;;29.75;;
10705;SDS011;5404;42.656;23.336;2023-02-28T02:08:24;65.55;;;29.73;;
10705;SDS011;5404;42.656;23.336;2023-02-28T02:10:58;68.70;;;30.08;;
10705;SDS011;5404;42.656;23.336;2023-02-28T02:41:39;76.97;;;32.22;;
10705;SDS011;5404;42.656;23.336;2023-02-28T02:47:01;75.68;;;33.10;;
10705;SDS011;5404;42.656;23.336;2023-02-28T02:49:50;79.05;;;32.45;;
10705;SDS011;5404;42.656;23.336;2023-02-28T02:52:20;69.07;;;31.10;;
10705;SDS011;5404;42.656;23.336;2023-02-28T02:54:50;77.40;;;36.17;;
10705;SDS011;5404;42.656;23.336;2023-02-28T02:57:21;83.10;;;34.90;;
10705;SDS011;5404;42.656;23.336;2023-02-28T03:00:04;93.43;;;36.10;;
10705;SDS011;5404;42.656;23.336;2023-02-28T03:02:33;90.68;;;38.15;;
10705;SDS011;5404;42.656;23.336;2023-02-28T03:05:06;76.20;;;33.85;;
10705;SDS011;5404;42.656;23.336;2023-02-28T03:07:41;77.45;;;32.85;;
10705;SDS011;5404;42.656;23.336;2023-02-28T03:18:36;94.65;;;33.70;;
10705;SDS011;5404;42.656;23.336;2023-02-28T03:23:49;81.22;;;33.53;;
10705;SDS011;5404;42.656;23.336;2023-02-28T03:26:39;80.28;;;34.63;;
10705;SDS011;5404;42.656;23.336;2023-02-28T03:29:13;80.40;;;35.00;;
10705;SDS011;5404;42.656;23.336;2023-02-28T03:31:50;79.15;;;32.97;;
10705;SDS011;5404;42.656;23.336;2023-02-28T03:34:29;81.75;;;34.15;;
10705;SDS011;5404;42.656;23.336;2023-02-28T03:37:01;79.40;;;33.30;;
10705;SDS011;5404;42.656;23.336;2023-02-28T03:39:40;85.78;;;33.70;;
10705;SDS011;5404;42.656;23.336;2023-02-28T03:42:11;77.35;;;34.17;;
10705;SDS011;5404;42.656;23.336;2023-02-28T03:44:42;87.20;;;36.15;;
10705;SDS011;5404;42.656;23.336;2023-02-28T03:47:24;74.47;;;31.27;;
10705;SDS011;5404;42.656;23.336;2023-02-28T03:49:59;80.90;;;32.78;;
10705;SDS011;5404;42.656;23.336;2023-02-28T03:52:27;66.05;;;31.10;;
10705;SDS011;5404;42.656;23.336;2023-02-28T03:54:59;86.03;;;33.33;;
10705;SDS011;5404;42.656;23.336;2023-02-28T03:57:40;81.85;;;33.67;;
10705;SDS011;5404;42.656;23.336;2023-02-28T04:00:14;285.40;;;52.33;;
10705;SDS011;5404;42.656;23.336;2023-02-28T04:02:41;1067.50;;;125.50;;
10705;SDS011;5404;42.656;23.336;2023-02-28T04:05:07;210.18;;;56.17;;
10705;SDS011;5404;42.656;23.336;2023-02-28T04:07:33;85.72;;;35.20;;
10705;SDS011;5404;42.656;23.336;2023-02-28T04:09:58;92.20;;;34.70;;
10705;SDS011;5404;42.656;23.336;2023-02-28T04:12:24;82.43;;;33.47;;
10705;SDS011;5404;42.656;23.336;2023-02-28T04:14:50;73.88;;;32.30;;
10705;SDS011;5404;42.656;23.336;2023-02-28T04:17:17;86.63;;;33.45;;
10705;SDS011;5404;42.656;23.336;2023-02-28T04:19:43;80.57;;;31.48;;
10705;SDS011;5404;42.656;23.336;2023-02-28T04:22:09;84.07;;;30.80;;
10705;SDS011;5404;42.656;23.336;2023-02-28T04:24:35;98.10;;;33.63;;
10705;SDS011;5404;42.656;23.336;2023-02-28T04:27:00;202.88;;;36.28;;
10705;SDS011;5404;42.656;23.336;2023-02-28T04:29:28;67.85;;;27.48;;
10705;SDS011;5404;42.656;23.336;2023-02-28T04:31:55;82.32;;;32.78;;
10705;SDS011;5404;42.656;23.336;2023-02-28T04:34:22;71.18;;;28.88;;
10705;SDS011;5404;42.656;23.336;2023-02-28T04:36:48;75.53;;;27.13;;
10705;SDS011;5404;42.656;23.336;2023-02-28T04:39:15;60.97;;;26.52;;
10705;SDS011;5404;42.656;23.336;2023-02-28T04:41:43;79.03;;;26.45;;
10705;SDS011;5404;42.656;23.336;2023-02-28T04:44:09;88.32;;;27.02;;
10705;SDS011;5404;42.656;23.336;2023-02-28T04:46:35;66.50;;;27.92;;
10705;SDS011;5404;42.656;23.336;2023-02-28T04:49:00;73.88;;;27.20;;
10705;SDS011;5404;42.656;23.336;2023-02-28T04:51:29;1026.40;;;95.18;;
10705;SDS011;5404;42.656;23.336;2023-02-28T04:53:54;831.33;;;72.72;;
10705;SDS011;5404;42.656;23.336;2023-02-28T04:56:20;67.30;;;26.63;;
10705;SDS011;5404;42.656;23.336;2023-02-28T04:58:48;69.22;;;29.42;;
10705;SDS011;5404;42.656;23.336;2023-02-28T05:03:53;65.50;;;25.02;;
10705;SDS011;5404;42.656;23.336;2023-02-28T05:06:20;67.80;;;27.67;;
10705;SDS011;5404;42.656;23.336;2023-02-28T05:08:48;550.53;;;67.05;;
10705;SDS011;5404;42.656;23.336;2023-02-28T05:11:22;61.35;;;26.80;;
10705;SDS011;5404;42.656;23.336;2023-02-28T05:13:51;66.78;;;26.60;;
10705;SDS011;5404;42.656;23.336;2023-02-28T05:16:19;64.17;;;25.20;;
10705;SDS011;5404;42.656;23.336;2023-02-28T05:18:44;67.07;;;28.20;;
10705;SDS011;5404;42.656;23.336;2023-02-28T05:21:27;67.38;;;25.33;;
10705;SDS011;5404;42.656;23.336;2023-02-28T05:23:55;59.92;;;26.60;;
10705;SDS011;5404;42.656;23.336;2023-02-28T05:26:26;65.43;;;27.45;;
10705;SDS011;5404;42.656;23.336;2023-02-28T05:28:52;66.80;;;26.58;;
10705;SDS011;5404;42.656;23.336;2023-02-28T05:31:20;65.63;;;26.80;;
10705;SDS011;5404;42.656;23.336;2023-02-28T05:33:46;76.68;;;28.33;;
10705;SDS011;5404;42.656;23.336;2023-02-28T05:36:11;67.97;;;26.65;;
10705;SDS011;5404;42.656;23.336;2023-02-28T05:38:39;70.60;;;28.25;;
10705;SDS011;5404;42.656;23.336;2023-02-28T05:41:08;96.20;;;39.25;;
10705;SDS011;5404;42.656;23.336;2023-02-28T05:43:34;109.40;;;37.28;;
10705;SDS011;5404;42.656;23.336;2023-02-28T05:46:06;121.50;;;42.00;;
10705;SDS011;5404;42.656;23.336;2023-02-28T05:48:36;106.40;;;40.30;;
10705;SDS011;5404;42.656;23.336;2023-02-28T05:51:03;108.18;;;40.00;;
10705;SDS011;5404;42.656;23.336;2023-02-28T05:53:30;99.28;;;39.42;;
10705;SDS011;5404;42.656;23.336;2023-02-28T05:55:56;111.80;;;41.42;;
10705;SDS011;5404;42.656;23.336;2023-02-28T05:58:22;105.53;;;39.30;;
10705;SDS011;5404;42.656;23.336;2023-02-28T06:00:51;111.45;;;40.17;;
10705;SDS011;5404;42.656;23.336;2023-02-28T06:03:19;207.52;;;45.45;;
10705;SDS011;5404;42.656;23.336;2023-02-28T06:05:45;110.15;;;38.28;;
10705;SDS011;5404;42.656;23.336;2023-02-28T06:08:10;107.32;;;39.75;;
10705;SDS011;5404;42.656;23.336;2023-02-28T06:10:36;113.07;;;42.83;;
10705;SDS011;5404;42.656;23.336;2023-02-28T06:13:02;115.97;;;43.10;;
10705;SDS011;5404;42.656;23.336;2023-02-28T06:15:28;113.00;;;39.88;;
10705;SDS011;5404;42.656;23.336;2023-02-28T06:17:54;99.97;;;36.50;;
10705;SDS011;5404;42.656;23.336;2023-02-28T06:20:24;111.18;;;38.88;;
10705;SDS011;5404;42.656;23.336;2023-02-28T06:22:51;107.40;;;42.00;;
10705;SDS011;5404;42.656;23.336;2023-02-28T06:25:17;109.85;;;42.90;;
10705;SDS011;5404;42.656;23.336;2023-02-28T06:27:43;113.40;;;41.50;;
10705;SDS011;5404;42.656;23.336;2023-02-28T06:30:09;96.25;;;39.15;;
10705;SDS011;5404;42.656;23.336;2023-02-28T06:32:35;87.85;;;38.13;;
10705;SDS011;5404;42.656;23.336;2023-02-28T06:35:01;93.93;;;38.47;;
10705;SDS011;5404;42.656;23.336;2023-02-28T06:37:27;90.60;;;36.30;;
10705;SDS011;5404;42.656;23.336;2023-02-28T06:39:54;92.05;;;37.00;;
10705;SDS011;5404;42.656;23.336;2023-02-28T06:42:23;90.20;;;37.58;;
10705;SDS011;5404;42.656;23.336;2023-02-28T06:44:57;95.82;;;37.63;;
10705;SDS011;5404;42.656;23.336;2023-02-28T06:47:23;88.00;;;35.58;;
10705;SDS011;5404;42.656;23.336;2023-02-28T06:49:49;88.45;;;37.13;;
10705;SDS011;5404;42.656;23.336;2023-02-28T06:52:15;87.32;;;36.17;;
10705;SDS011;5404;42.656;23.336;2023-02-28T06:54:41;93.20;;;36.33;;
10705;SDS011;5404;42.656;23.336;2023-02-28T06:57:08;87.47;;;36.30;;
10705;SDS011;5404;42.656;23.336;2023-02-28T06:59:34;79.78;;;35.03;;
10705;SDS011;5404;42.656;23.336;2023-02-28T07:02:01;83.13;;;38.05;;
10705;SDS011;5404;42.656;23.336;2023-02-28T07:04:27;83.10;;;36.63;;
10705;SDS011;5404;42.656;23.336;2023-02-28T07:06:54;94.03;;;38.17;;
10705;SDS011;5404;42.656;23.336;2023-02-28T07:09:21;87.22;;;37.97;;
10705;SDS011;5404;42.656;23.336;2023-02-28T07:11:47;94.20;;;37.97;;
10705;SDS011;5404;42.656;23.336;2023-02-28T07:14:14;90.75;;;37.20;;
10705;SDS011;5404;42.656;23.336;2023-02-28T07:16:39;92.80;;;37.30;;
10705;SDS011;5404;42.656;23.336;2023-02-28T07:19:06;91.35;;;38.00;;
10705;SDS011;5404;42.656;23.336;2023-02-28T07:21:33;90.30;;;36.75;;
10705;SDS011;5404;42.656;23.336;2023-02-28T07:23:58;88.50;;;36.58;;
10705;SDS011;5404;42.656;23.336;2023-02-28T07:26:24;82.82;;;36.45;;
10705;SDS011;5404;42.656;23.336;2023-02-28T07:28:50;84.88;;;36.17;;
10705;SDS011;5404;42.656;23.336;2023-02-28T07:31:16;77.53;;;34.97;;
10705;SDS011;5404;42.656;23.336;2023-02-28T07:33:42;79.35;;;33.25;;
10705;SDS011;5404;42.656;23.336;2023-02-28T07:36:08;80.25;;;34.35;;
10705;SDS011;5404;42.656;23.336;2023-02-28T07:38:42;72.00;;;34.55;;
10705;SDS011;5404;42.656;23.336;2023-02-28T07:43:35;80.28;;;35.22;;
10705;SDS011;5404;42.656;23.336;2023-02-28T07:46:01;85.03;;;36.20;;
10705;SDS011;5404;42.656;23.336;2023-02-28T07:48:29;80.28;;;33.17;;
10705;SDS011;5404;42.656;23.336;2023-02-28T07:50:57;71.70;;;31.80;;
10705;SDS011;5404;42.656;23.336;2023-02-28T07:53:23;72.32;;;33.25;;
10705;SDS011;5404;42.656;23.336;2023-02-28T07:55:49;67.18;;;33.28;;
10705;SDS011;5404;42.656;23.336;2023-02-28T07:58:14;79.47;;;32.88;;
10705;SDS011;5404;42.656;23.336;2023-02-28T08:00:40;68.05;;;33.45;;
10705;SDS011;5404;42.656;23.336;2023-02-28T08:03:05;66.30;;;31.13;;
10705;SDS011;5404;42.656;23.336;2023-02-28T08:05:30;73.85;;;33.42;;
10705;SDS011;5404;42.656;23.336;2023-02-28T08:07:56;76.90;;;34.95;;
10705;SDS011;5404;42.656;23.336;2023-02-28T08:10:23;70.97;;;33.03;;
10705;SDS011;5404;42.656;23.336;2023-02-28T08:12:49;83.72;;;34.97;;
10705;SDS011;5404;42.656;23.336;2023-02-28T08:15:15;77.85;;;33.45;;
10705;SDS011;5404;42.656;23.336;2023-02-28T08:17:40;73.40;;;34.47;;
10705;SDS011;5404;42.656;23.336;2023-02-28T08:20:06;66.20;;;32.13;;
10705;SDS011;5404;42.656;23.336;2023-02-28T08:22:32;69.55;;;31.85;;
10705;SDS011;5404;42.656;23.336;2023-02-28T08:24:57;67.18;;;31.27;;
10705;SDS011;5404;42.656;23.336;2023-02-28T08:27:23;67.65;;;32.97;;
10705;SDS011;5404;42.656;23.336;2023-02-28T08:29:50;63.83;;;31.17;;
10705;SDS011;5404;42.656;23.336;2023-02-28T08:32:15;77.43;;;32.58;;
10705;SDS011;5404;42.656;23.336;2023-02-28T08:34:41;77.95;;;32.15;;
10705;SDS011;5404;42.656;23.336;2023-02-28T08:37:06;68.70;;;31.33;;
10705;SDS011;5404;42.656;23.336;2023-02-28T08:39:35;56.92;;;30.67;;
10705;SDS011;5404;42.656;23.336;2023-02-28T08:42:01;65.25;;;31.60;;
10705;SDS011;5404;42.656;23.336;2023-02-28T08:44:28;76.53;;;32.83;;
10705;SDS011;5404;42.656;23.336;2023-02-28T08:46:54;69.63;;;31.50;;
10705;SDS011;5404;42.656;23.336;2023-02-28T08:49:19;68.75;;;33.35;;
10705;SDS011;5404;42.656;23.336;2023-02-28T08:51:44;73.75;;;33.00;;
10705;SDS011;5404;42.656;23.336;2023-02-28T08:54:10;78.47;;;34.78;;
10705;SDS011;5404;42.656;23.336;2023-02-28T08:56:37;98.70;;;38.80;;
10705;SDS011;5404;42.656;23.336;2023-02-28T08:59:03;97.43;;;40.75;;
10705;SDS011;5404;42.656;23.336;2023-02-28T09:01:29;87.38;;;35.85;;
10705;SDS011;5404;42.656;23.336;2023-02-28T09:03:55;88.38;;;38.15;;
10705;SDS011;5404;42.656;23.336;2023-02-28T09:06:23;85.07;;;37.13;;
10705;SDS011;5404;42.656;23.336;2023-02-28T09:08:50;113.10;;;38.75;;
10705;SDS011;5404;42.656;23.336;2023-02-28T09:11:15;91.57;;;36.63;;
10705;SDS011;5404;42.656;23.336;2023-02-28T09:13:44;97.20;;;46.40;;
10705;SDS011;5404;42.656;23.336;2023-02-28T09:16:11;120.65;;;48.88;;
10705;SDS011;5404;42.656;23.336;2023-02-28T09:18:38;87.07;;;38.85;;
10705;SDS011;5404;42.656;23.336;2023-02-28T09:21:08;100.72;;;42.42;;
10705;SDS011;5404;42.656;23.336;2023-02-28T09:23:37;122.70;;;49.28;;
10705;SDS011;5404;42.656;23.336;2023-02-28T09:26:06;103.55;;;43.65;;
10705;SDS011;5404;42.656;23.336;2023-02-28T09:28:33;107.55;;;42.80;;
10705;SDS011;5404;42.656;23.336;2023-02-28T09:30:59;98.15;;;41.25;;
10705;SDS011;5404;42.656;23.336;2023-02-28T09:33:25;108.72;;;42.10;;
10705;SDS011;5404;42.656;23.336;2023-02-28T09:35:57;100.82;;;41.88;;
10705;SDS011;5404;42.656;23.336;2023-02-28T09:38:26;102.70;;;41.88;;
10705;SDS011;5404;42.656;23.336;2023-02-28T09:40:53;102.30;;;39.58;;
10705;SDS011;5404;42.656;23.336;2023-02-28T09:43:23;93.18;;;38.13;;
10705;SDS011;5404;42.656;23.336;2023-02-28T09:46:34;54.85;;;22.98;;
10705;SDS011;5404;42.656;23.336;2023-02-28T09:48:54;70.45;;;30.58;;
10705;SDS011;5404;42.656;23.336;2023-02-28T09:53:57;53.65;;;23.17;;
10705;SDS011;5404;42.656;23.336;2023-02-28T09:56:39;45.75;;;17.13;;
10705;SDS011;5404;42.656;23.336;2023-02-28T09:59:25;57.95;;;19.33;;
10705;SDS011;5404;42.656;23.336;2023-02-28T10:02:09;43.35;;;16.98;;
10705;SDS011;5404;42.656;23.336;2023-02-28T10:04:49;46.80;;;16.40;;
10705;SDS011;5404;42.656;23.336;2023-02-28T10:07:35;35.95;;;15.95;;
10705;SDS011;5404;42.656;23.336;2023-02-28T10:10:10;38.72;;;13.57;;
10705;SDS011;5404;42.656;23.336;2023-02-28T10:13:01;45.97;;;18.05;;
10705;SDS011;5404;42.656;23.336;2023-02-28T10:15:31;36.90;;;16.10;;
10705;SDS011;5404;42.656;23.336;2023-02-28T10:18:03;34.90;;;15.63;;
10705;SDS011;5404;42.656;23.336;2023-02-28T10:20:33;35.08;;;13.98;;
10705;SDS011;5404;42.656;23.336;2023-02-28T10:23:02;42.55;;;16.10;;
10705;SDS011;5404;42.656;23.336;2023-02-28T10:25:35;37.10;;;14.60;;
10705;SDS011;5404;42.656;23.336;2023-02-28T10:30:33;40.95;;;15.05;;
10705;SDS011;5404;42.656;23.336;2023-02-28T10:32:59;35.75;;;13.88;;
10705;SDS011;5404;42.656;23.336;2023-02-28T10:35:26;27.98;;;13.07;;
10705;SDS011;5404;42.656;23.336;2023-02-28T10:37:57;37.33;;;14.15;;
10705;SDS011;5404;42.656;23.336;2023-02-28T10:40:27;37.53;;;13.35;;
10705;SDS011;5404;42.656;23.336;2023-02-28T10:43:02;29.65;;;13.65;;
10705;SDS011;5404;42.656;23.336;2023-02-28T10:45:56;34.38;;;12.15;;
10705;SDS011;5404;42.656;23.336;2023-02-28T10:48:57;36.50;;;13.55;;
10705;SDS011;5404;42.656;23.336;2023-02-28T10:51:36;34.92;;;13.25;;
10705;SDS011;5404;42.656;23.336;2023-02-28T10:54:03;34.67;;;11.95;;
10705;SDS011;5404;42.656;23.336;2023-02-28T10:56:30;35.70;;;12.77;;
10705;SDS011;5404;42.656;23.336;2023-02-28T11:01:55;31.88;;;12.02;;
10705;SDS011;5404;42.656;23.336;2023-02-28T11:07:01;38.17;;;12.85;;
10705;SDS011;5404;42.656;23.336;2023-02-28T11:09:35;48.85;;;14.75;;
10705;SDS011;5404;42.656;23.336;2023-02-28T11:12:04;41.50;;;14.05;;
10705;SDS011;5404;42.656;23.336;2023-02-28T11:14:39;30.48;;;14.52;;
10705;SDS011;5404;42.656;23.336;2023-02-28T11:17:19;30.85;;;12.23;;
10705;SDS011;5404;42.656;23.336;2023-02-28T11:19:48;38.33;;;13.27;;
10705;SDS011;5404;42.656;23.336;2023-02-28T11:22:21;37.17;;;14.60;;
10705;SDS011;5404;42.656;23.336;2023-02-28T11:24:54;39.30;;;13.27;;
10705;SDS011;5404;42.656;23.336;2023-02-28T11:29:59;28.10;;;11.73;;
10705;SDS011;5404;42.656;23.336;2023-02-28T11:32:27;28.08;;;12.77;;
10705;SDS011;5404;42.656;23.336;2023-02-28T11:35:03;28.42;;;12.88;;
10705;SDS011;5404;42.656;23.336;2023-02-28T11:37:34;25.38;;;10.15;;
10705;SDS011;5404;42.656;23.336;2023-02-28T11:40:00;29.52;;;14.38;;
10705;SDS011;5404;42.656;23.336;2023-02-28T11:45:21;49.70;;;16.55;;
10705;SDS011;5404;42.656;23.336;2023-02-28T11:50:44;35.55;;;16.20;;
10705;SDS011;5404;42.656;23.336;2023-02-28T11:53:43;37.50;;;14.68;;
10705;SDS011;5404;42.656;23.336;2023-02-28T11:59:11;29.58;;;13.75;;
10705;SDS011;5404;42.656;23.336;2023-02-28T12:04:46;32.15;;;14.40;;
10705;SDS011;5404;42.656;23.336;2023-02-28T12:10:42;29.58;;;13.90;;
10705;SDS011;5404;42.656;23.336;2023-02-28T12:13:28;37.55;;;16.42;;
10705;SDS011;5404;42.656;23.336;2023-02-28T12:18:57;43.42;;;16.55;;
10705;SDS011;5404;42.656;23.336;2023-02-28T12:21:52;39.50;;;15.68;;
10705;SDS011;5404;42.656;23.336;2023-02-28T12:24:30;35.65;;;14.45;;
10705;SDS011;5404;42.656;23.336;2023-02-28T12:27:17;38.00;;;14.23;;
10705;SDS011;5404;42.656;23.336;2023-02-28T12:29:50;40.00;;;16.20;;
10705;SDS011;5404;42.656;23.336;2023-02-28T12:32:25;41.95;;;17.02;;
10705;SDS011;5404;42.656;23.336;2023-02-28T12:37:39;35.30;;;14.57;;
10705;SDS011;5404;42.656;23.336;2023-02-28T12:40:13;33.53;;;11.98;;
10705;SDS011;5404;42.656;23.336;2023-02-28T12:42:46;37.38;;;16.15;;
10705;SDS011;5404;42.656;23.336;2023-02-28T12:45:30;41.97;;;15.82;;
10705;SDS011;5404;42.656;23.336;2023-02-28T12:48:06;49.22;;;17.20;;
10705;SDS011;5404;42.656;23.336;2023-02-28T12:50:35;37.15;;;16.30;;
10705;SDS011;5404;42.656;23.336;2023-02-28T12:53:03;51.17;;;17.23;;
10705;SDS011;5404;42.656;23.336;2023-02-28T13:04:05;39.20;;;17.02;;
10705;SDS011;5404;42.656;23.336;2023-02-28T13:06:51;29.92;;;13.60;;
10705;SDS011;5404;42.656;23.336;2023-02-28T13:09:34;27.38;;;12.85;;
10705;SDS011;5404;42.656;23.336;2023-02-28T13:12:00;27.42;;;12.07;;
10705;SDS011;5404;42.656;23.336;2023-02-28T13:14:38;33.00;;;15.20;;
10705;SDS011;5404;42.656;23.336;2023-02-28T13:24:55;41.28;;;14.05;;
10705;SDS011;5404;42.656;23.336;2023-02-28T13:27:32;50.53;;;16.10;;
10705;SDS011;5404;42.656;23.336;2023-02-28T13:35:48;31.42;;;11.20;;
10705;SDS011;5404;42.656;23.336;2023-02-28T13:38:32;27.40;;;12.05;;
10705;SDS011;5404;42.656;23.336;2023-02-28T13:49:20;33.30;;;12.50;;
10705;SDS011;5404;42.656;23.336;2023-02-28T13:51:50;31.52;;;12.23;;
10705;SDS011;5404;42.656;23.336;2023-02-28T14:05:32;31.75;;;13.20;;
10705;SDS011;5404;42.656;23.336;2023-02-28T14:07:59;39.00;;;13.25;;
10705;SDS011;5404;42.656;23.336;2023-02-28T14:10:42;35.28;;;13.48;;
10705;SDS011;5404;42.656;23.336;2023-02-28T14:16:15;41.15;;;13.95;;
10705;SDS011;5404;42.656;23.336;2023-02-28T14:18:55;34.38;;;13.85;;
10705;SDS011;5404;42.656;23.336;2023-02-28T14:29:59;52.75;;;13.55;;
10705;SDS011;5404;42.656;23.336;2023-02-28T14:35:39;37.10;;;13.73;;
10705;SDS011;5404;42.656;23.336;2023-02-28T14:38:24;35.50;;;14.57;;
10705;SDS011;5404;42.656;23.336;2023-02-28T14:40:54;40.22;;;15.35;;
10705;SDS011;5404;42.656;23.336;2023-02-28T14:43:24;40.90;;;15.18;;
10705;SDS011;5404;42.656;23.336;2023-02-28T14:45:55;34.63;;;14.50;;
10705;SDS011;5404;42.656;23.336;2023-02-28T14:48:23;42.05;;;14.50;;
10705;SDS011;5404;42.656;23.336;2023-02-28T14:50:51;38.80;;;12.35;;
10705;SDS011;5404;42.656;23.336;2023-02-28T14:53:19;35.13;;;12.47;;
10705;SDS011;5404;42.656;23.336;2023-02-28T14:55:48;53.15;;;16.48;;
10705;SDS011;5404;42.656;23.336;2023-02-28T14:58:22;45.88;;;14.60;;
10705;SDS011;5404;42.656;23.336;2023-02-28T15:00:51;33.88;;;13.27;;
10705;SDS011;5404;42.656;23.336;2023-02-28T15:03:23;35.72;;;13.02;;
10705;SDS011;5404;42.656;23.336;2023-02-28T15:05:53;39.20;;;13.45;;
10705;SDS011;5404;42.656;23.336;2023-02-28T15:08:20;29.60;;;12.02;;
10705;SDS011;5404;42.656;23.336;2023-02-28T15:11:00;35.72;;;14.70;;
10705;SDS011;5404;42.656;23.336;2023-02-28T15:16:04;41.40;;;13.13;;
10705;SDS011;5404;42.656;23.336;2023-02-28T15:21:21;43.42;;;13.50;;
10705;SDS011;5404;42.656;23.336;2023-02-28T15:23:55;37.92;;;14.95;;
10705;SDS011;5404;42.656;23.336;2023-02-28T15:26:25;36.25;;;13.82;;
10705;SDS011;5404;42.656;23.336;2023-02-28T15:28:57;29.52;;;11.50;;
10705;SDS011;5404;42.656;23.336;2023-02-28T15:31:28;34.50;;;11.88;;
10705;SDS011;5404;42.656;23.336;2023-02-28T15:33:57;35.53;;;12.20;;
10705;SDS011;5404;42.656;23.336;2023-02-28T15:36:31;30.40;;;12.10;;
10705;SDS011;5404;42.656;23.336;2023-02-28T15:39:02;29.95;;;11.80;;
10705;SDS011;5404;42.656;23.336;2023-02-28T15:41:50;28.30;;;11.32;;
10705;SDS011;5404;42.656;23.336;2023-02-28T15:44:28;23.23;;;10.15;;
10705;SDS011;5404;42.656;23.336;2023-02-28T15:47:00;22.30;;;12.02;;
10705;SDS011;5404;42.656;23.336;2023-02-28T15:49:48;28.75;;;11.50;;
10705;SDS011;5404;42.656;23.336;2023-02-28T15:54:56;23.45;;;11.75;;
10705;SDS011;5404;42.656;23.336;2023-02-28T15:57:32;23.05;;;10.00;;
10705;SDS011;5404;42.656;23.336;2023-02-28T16:00:00;19.27;;;9.23;;
10705;SDS011;5404;42.656;23.336;2023-02-28T16:02:36;28.48;;;10.07;;
10705;SDS011;5404;42.656;23.336;2023-02-28T16:07:31;20.33;;;9.60;;
10705;SDS011;5404;42.656;23.336;2023-02-28T16:10:00;19.65;;;8.57;;
10705;SDS011;5404;42.656;23.336;2023-02-28T16:12:27;15.65;;;8.32;;
10705;SDS011;5404;42.656;23.336;2023-02-28T16:14:54;21.77;;;8.93;;
10705;SDS011;5404;42.656;23.336;2023-02-28T16:17:24;14.52;;;8.80;;
10705;SDS011;5404;42.656;23.336;2023-02-28T16:19:52;20.20;;;10.15;;
10705;SDS011;5404;42.656;23.336;2023-02-28T16:22:18;18.88;;;10.15;;
10705;SDS011;5404;42.656;23.336;2023-02-28T16:24:43;24.17;;;8.95;;
10705;SDS011;5404;42.656;23.336;2023-02-28T16:27:14;12.20;;;6.88;;
10705;SDS011;5404;42.656;23.336;2023-02-28T16:29:57;20.42;;;9.32;;
10705;SDS011;5404;42.656;23.336;2023-02-28T16:32:23;16.45;;;7.95;;
10705;SDS011;5404;42.656;23.336;2023-02-28T16:34:50;17.00;;;7.22;;
10705;SDS011;5404;42.656;23.336;2023-02-28T16:37:17;19.27;;;8.93;;
10705;SDS011;5404;42.656;23.336;2023-02-28T16:39:45;25.40;;;14.60;;
10705;SDS011;5404;42.656;23.336;2023-02-28T16:42:14;33.20;;;15.98;;
10705;SDS011;5404;42.656;23.336;2023-02-28T16:44:43;21.70;;;9.05;;
10705;SDS011;5404;42.656;23.336;2023-02-28T16:47:10;20.23;;;8.90;;
10705;SDS011;5404;42.656;23.336;2023-02-28T16:49:36;18.25;;;8.90;;
10705;SDS011;5404;42.656;23.336;2023-02-28T16:52:02;21.85;;;8.88;;
10705;SDS011;5404;42.656;23.336;2023-02-28T16:54:27;15.23;;;7.35;;
10705;SDS011;5404;42.656;23.336;2023-02-28T16:56:54;19.02;;;7.97;;
10705;SDS011;5404;42.656;23.336;2023-02-28T16:59:22;16.38;;;8.43;;
10705;SDS011;5404;42.656;23.336;2023-02-28T17:01:50;19.33;;;7.95;;
10705;SDS011;5404;42.656;23.336;2023-02-28T17:04:16;20.20;;;7.78;;